EKRKESSP

Guest
Details From EKRK - Copenhagen Roskilde INT
To ESSP - Norrkoping Kungsangen
Flight Number -
Tags decoded
Created
Modified
Stats Distance 225 nm / 417 km
Max Altitude 0 ft / 0 m
Waypoints 3
Social Downloads 0
Likes 0
Share VATSIM

Download

Looking for another format? Having issues loading an existing format? Contact us
Advertisement - Login to hide

Notes

Requested: EKRK RASMU ESSP

Route

EKRK RASMU ESSP

ID Type Via Altitude Latitude Longitude Leg Dist Tot Dist Heading (true) Name
O EKRK APT - 0 ft / 0 m 55.58530˚ 12.12918˚ - 0 nm - Copenhagen Roskilde INT
RASMU FIX - 0 ft / 0 m 56.75839˚ 13.81528˚ 90 nm 90 nm 38° / 39° -
O ESSP APT - 0 ft / 0 m 58.58749˚ 16.24560˚ 134 nm 224 nm 34° / 36° Norrkoping Kungsangen

Altitude Profile

Advertisement - Login to hide

Weather


0- 5 10 15 20 25 30 35+ Temperature / ° C

Clouds and Precipitation
Forecast for 2017-12-12 06:00 UTC. Updated an hour ago

Ground ~20,000 ft ~40,000 ft Winds

EKRK

Details ICAO EKRK (RKE)
Name Copenhagen Roskilde INT
Region Denmark / Faroe Islands
Timezone Europe/Copenhagen (UTC+1.0)
Stats Elevation 146 ft / 45 m (AMSL)
Location 55.585296° 12.129176°
Runways 2
Magnetic Variation 3.548° E

METAR

EKRK 120620Z AUTO 33008KT 3400NDV -SN SCT001/// BKN003/// OVC011/// 00/00 Q0985 R99/590211 R99/520324

Decode

TAF

Not found

Departure Runways

ID Width Length Bearing (true) Bearing (mag) Surface Threshold Offset Overrun Length
03 105 ft / 32 m 4,926 ft / 1,501 m 30.86° 27.31° Asphalt 0 ft / 0 m 0 ft / 0 m
11 105 ft / 32 m 5,908 ft / 1,801 m 116.31° 112.76° Asphalt 0 ft / 0 m 0 ft / 0 m
21 105 ft / 32 m 4,926 ft / 1,501 m 210.88° 207.33° Asphalt 0 ft / 0 m 0 ft / 0 m
29 105 ft / 32 m 5,908 ft / 1,801 m 296.33° 292.78° Asphalt 194 ft / 59 m 0 ft / 0 m

ESSP

Details ICAO ESSP (NRK)
Name Norrkoping Kungsangen
Region Sweden
Timezone Europe/Stockholm (UTC+1.0)
Stats Elevation 32 ft / 10 m (AMSL)
Location 58.587486° 16.245601°
Runways 2
Magnetic Variation 5.288° E

METAR

ESSP 120620Z 36006KT 2700 SN OVC002 00/00 Q0987 R27/590249

Decode

TAF

Not found

Destination Runways

ID Width Length Bearing (true) Bearing (mag) Surface Threshold Offset Overrun Length
09 148 ft / 45 m 7,203 ft / 2,195 m 90.85° 85.56° Asphalt 0 ft / 0 m 0 ft / 0 m
11 115 ft / 35 m 1,942 ft / 592 m 115.74° 110.45° Grass 0 ft / 0 m 0 ft / 0 m
27 148 ft / 45 m 7,203 ft / 2,195 m 270.89° 265.60° Asphalt 0 ft / 0 m 200 ft / 61 m
29 115 ft / 35 m 1,942 ft / 592 m 295.74° 290.45° Grass 0 ft / 0 m 0 ft / 0 m

Approach Navaids

Runway Type Ident Frequency Range Bearing (true) Bearing (mag) Slope Elevation
27 Localiser SP 109.50 MHz 18 nm / 33 km 270.83° 265.54° - 32 ft / 10 m (AMSL)
27 Glidescope SP 109.50 MHz 10 nm / 19 km 270.87° 265.58° 3.00° 32 ft / 10 m (AMSL)

Popular Alternatives